createdAt,value
2023-03-27T00:00:17.043Z,1.60
2023-03-27T00:01:13.556Z,1.80
2023-03-27T00:01:48.126Z,2.00
2023-03-27T00:02:23.754Z,1.40
2023-03-27T00:02:58.181Z,1.50
2023-03-27T00:03:32.442Z,1.20
2023-03-27T00:04:06.828Z,1.20
2023-03-27T00:04:41.469Z,1.30
2023-03-27T00:05:15.190Z,2.10
2023-03-27T00:05:48.647Z,1.10
2023-03-27T00:06:25.275Z,1.30
2023-03-27T00:06:59.703Z,1.20
2023-03-27T00:07:36.205Z,0.90
2023-03-27T00:08:09.672Z,1.10
2023-03-27T00:08:48.920Z,1.20
2023-03-27T00:09:22.475Z,1.30
2023-03-27T00:09:57.621Z,1.20
2023-03-27T00:10:32.248Z,0.70
2023-03-27T00:11:08.400Z,1.30
2023-03-27T00:11:42.185Z,0.90
2023-03-27T00:12:15.751Z,1.20
2023-03-27T00:12:50.008Z,1.30
2023-03-27T00:13:23.900Z,0.80
2023-03-27T00:13:57.378Z,1.00
2023-03-27T00:14:33.987Z,0.80
2023-03-27T00:15:17.548Z,1.00
2023-03-27T00:15:51.389Z,0.90
2023-03-27T00:16:27.085Z,0.90
2023-03-27T00:17:00.788Z,1.00
2023-03-27T00:17:35.337Z,1.30
2023-03-27T00:18:10.269Z,1.60
2023-03-27T00:18:45.237Z,0.90
2023-03-27T00:19:19.252Z,0.60
2023-03-27T00:19:52.706Z,1.10
2023-03-27T00:20:27.153Z,0.70
2023-03-27T00:21:03.262Z,1.10
2023-03-27T00:21:36.756Z,1.20
2023-03-27T00:22:10.943Z,0.90
2023-03-27T00:22:44.348Z,0.60
2023-03-27T00:23:20.210Z,0.80
2023-03-27T00:23:54.793Z,0.80
2023-03-27T00:24:28.549Z,0.80
2023-03-27T00:25:02.664Z,0.90
2023-03-27T00:25:37.252Z,0.50
2023-03-27T00:26:12.190Z,0.70
2023-03-27T00:26:45.843Z,1.00
2023-03-27T00:27:20.161Z,0.80
2023-03-27T00:27:58.730Z,0.50
2023-03-27T00:28:32.610Z,0.60
2023-03-27T00:29:08.100Z,2.00
2023-03-27T00:29:44.455Z,0.60
2023-03-27T00:30:21.534Z,0.80
2023-03-27T00:30:57.076Z,0.60
2023-03-27T00:31:30.974Z,0.40
2023-03-27T00:32:07.750Z,0.70
2023-03-27T00:32:42.209Z,0.40
2023-03-27T00:33:16.121Z,0.40
2023-03-27T00:33:49.691Z,0.40
2023-03-27T00:34:23.301Z,0.40
2023-03-27T00:34:59.471Z,0.30
2023-03-27T00:35:33.225Z,0.70
2023-03-27T00:36:07.383Z,1.10
2023-03-27T00:36:41.104Z,0.50
2023-03-27T00:37:14.665Z,0.30
2023-03-27T00:37:48.129Z,0.70
2023-03-27T00:38:21.847Z,0.60
2023-03-27T00:38:55.429Z,0.40
2023-03-27T00:39:28.942Z,0.70
2023-03-27T00:40:08.374Z,0.60
2023-03-27T00:40:44.359Z,0.40
2023-03-27T00:41:17.960Z,0.90
2023-03-27T00:41:52.080Z,0.80
2023-03-27T00:42:25.559Z,0.30
2023-03-27T00:42:59.513Z,0.50
2023-03-27T00:43:35.171Z,0.60
2023-03-27T00:44:24.094Z,0.30
2023-03-27T00:44:57.910Z,0.40
2023-03-27T00:45:34.019Z,0.40
2023-03-27T00:46:11.074Z,1.90
2023-03-27T00:46:45.469Z,0.30
2023-03-27T00:47:31.289Z,0.50
2023-03-27T00:48:08.367Z,0.50
2023-03-27T00:48:47.261Z,0.40
2023-03-27T00:49:22.699Z,0.60
2023-03-27T00:49:56.236Z,0.70
2023-03-27T00:50:37.673Z,0.60
2023-03-27T00:51:12.709Z,0.40
2023-03-27T00:51:49.533Z,0.50
2023-03-27T00:52:23.275Z,0.70
2023-03-27T00:53:05.483Z,0.40
2023-03-27T00:53:39.359Z,0.30
2023-03-27T00:54:21.899Z,0.30
2023-03-27T00:54:58.089Z,0.30
2023-03-27T00:55:36.490Z,0.60
2023-03-27T00:56:10.705Z,0.30
2023-03-27T00:56:46.135Z,0.60
2023-03-27T00:57:20.311Z,0.30
2023-03-27T00:58:03.619Z,0.40
2023-03-27T00:58:42.499Z,0.30
2023-03-27T00:59:21.652Z,0.30
2023-03-27T00:59:58.898Z,0.30
2023-03-27T01:00:33.759Z,0.40
2023-03-27T01:01:10.410Z,0.50
2023-03-27T01:01:47.675Z,0.30
2023-03-27T01:02:22.823Z,0.60
2023-03-27T01:02:56.584Z,0.80
2023-03-27T01:03:34.738Z,0.40
2023-03-27T01:04:09.303Z,0.50
2023-03-27T01:04:44.861Z,0.40
2023-03-27T01:05:20.410Z,0.40
2023-03-27T01:05:57.984Z,1.20
2023-03-27T01:06:32.505Z,0.50
2023-03-27T01:07:07.701Z,0.60
2023-03-27T01:07:51.288Z,0.30
2023-03-27T01:08:38.024Z,1.20
2023-03-27T01:09:20.298Z,0.50
2023-03-27T01:09:56.006Z,0.50
2023-03-27T01:11:15.057Z,0.30
2023-03-27T01:12:00.170Z,0.40
2023-03-27T01:12:54.521Z,0.60
2023-03-27T01:13:46.247Z,0.50
2023-03-27T01:14:37.042Z,0.40
2023-03-27T01:15:28.231Z,0.30
2023-03-27T01:17:06.854Z,0.40
2023-03-27T01:18:06.540Z,0.40
2023-03-27T01:18:56.805Z,0.50
2023-03-27T01:19:35.867Z,0.40
2023-03-27T01:20:34.248Z,0.70
2023-03-27T01:21:10.924Z,0.40
2023-03-27T01:22:07.046Z,0.40
2023-03-27T01:23:01.988Z,0.30
2023-03-27T01:23:59.635Z,1.00
2023-03-27T01:24:53.125Z,0.40
2023-03-27T01:25:40.861Z,0.30
2023-03-27T01:26:58.330Z,0.30
2023-03-27T01:27:38.196Z,0.50
2023-03-27T01:28:30.015Z,0.60
2023-03-27T01:29:22.633Z,0.30
2023-03-27T01:30:27.411Z,0.90
2023-03-27T01:31:22.443Z,0.50
2023-03-27T01:32:33.874Z,0.30
2023-03-27T01:33:44.063Z,0.50
2023-03-27T01:35:01.502Z,0.60
2023-03-27T01:35:45.163Z,0.30
2023-03-27T01:36:40.292Z,0.30
2023-03-27T01:37:37.973Z,0.30
2023-03-27T01:38:35.792Z,0.70
2023-03-27T01:39:43.135Z,0.50
2023-03-27T01:40:30.092Z,0.50
2023-03-27T01:41:15.170Z,1.00
2023-03-27T01:42:06.891Z,0.30
2023-03-27T01:42:50.124Z,1.40
2023-03-27T01:43:33.854Z,0.50
2023-03-27T01:44:47.946Z,0.40
2023-03-27T01:45:33.774Z,0.60
2023-03-27T01:46:12.747Z,0.40
2023-03-27T01:47:00.200Z,0.50
2023-03-27T01:47:49.421Z,0.50
2023-03-27T01:48:34.381Z,0.50
2023-03-27T01:51:29.381Z,0.40
2023-03-27T01:52:08.434Z,0.50
2023-03-27T01:52:45.612Z,0.80
2023-03-27T01:53:37.562Z,0.60
2023-03-27T01:54:23.936Z,1.50
2023-03-27T01:55:05.371Z,0.70
2023-03-27T01:55:45.733Z,0.30
2023-03-27T01:56:32.714Z,0.60
2023-03-27T01:57:12.656Z,0.60
2023-03-27T01:57:52.376Z,0.80
2023-03-27T01:58:38.405Z,1.60
2023-03-27T01:59:18.922Z,0.60
2023-03-27T02:00:18.428Z,1.10
2023-03-27T02:00:57.571Z,0.70
2023-03-27T02:01:38.697Z,0.50
2023-03-27T02:02:18.343Z,0.60
2023-03-27T02:03:00.565Z,0.40
2023-03-27T02:03:36.170Z,0.60
2023-03-27T02:04:36.598Z,0.90
2023-03-27T02:05:21.400Z,1.50
2023-03-27T02:06:01.888Z,0.50
2023-03-27T02:06:42.036Z,2.20
2023-03-27T02:07:21.758Z,0.70
2023-03-27T02:08:01.423Z,0.50
2023-03-27T02:09:10.789Z,0.70
2023-03-27T02:09:49.621Z,1.50
2023-03-27T02:10:27.755Z,1.00
2023-03-27T02:11:01.469Z,0.60
2023-03-27T02:11:41.629Z,0.70
2023-03-27T02:12:23.874Z,0.60
2023-03-27T02:13:05.265Z,0.70
2023-03-27T02:13:54.447Z,0.60
2023-03-27T02:14:33.916Z,0.80
2023-03-27T02:15:23.471Z,0.50
2023-03-27T02:16:01.932Z,0.60
2023-03-27T02:16:42.766Z,0.90
2023-03-27T02:17:29.123Z,1.00
2023-03-27T02:18:52.385Z,0.70
2023-03-27T02:19:38.335Z,0.50
2023-03-27T02:20:45.108Z,0.70
2023-03-27T02:39:28.135Z,0.60
2023-03-27T02:40:10.350Z,0.50
2023-03-27T02:40:58.429Z,1.00
2023-03-27T02:42:53.210Z,0.50
2023-03-27T02:43:51.475Z,0.40
2023-03-27T02:44:52.675Z,0.50
2023-03-27T02:45:43.985Z,0.80
2023-03-27T02:46:38.786Z,0.40
2023-03-27T02:47:19.534Z,0.60
2023-03-27T02:48:16.417Z,0.70
2023-03-27T02:48:54.550Z,0.60
2023-03-27T02:50:00.713Z,0.60
2023-03-27T02:50:46.241Z,0.40
2023-03-27T02:51:30.806Z,0.60
2023-03-27T02:52:11.690Z,0.50
2023-03-27T02:52:59.146Z,1.10
2023-03-27T02:53:39.111Z,0.70
2023-03-27T02:54:17.324Z,0.60
2023-03-27T02:55:06.471Z,0.70
2023-03-27T02:55:46.645Z,0.40
2023-03-27T02:56:22.573Z,0.70
2023-03-27T02:57:01.687Z,0.40
2023-03-27T02:57:52.321Z,0.50
2023-03-27T02:59:17.195Z,1.00
2023-03-27T02:59:55.419Z,1.10
2023-03-27T03:00:34.007Z,0.80
2023-03-27T03:01:22.552Z,0.70
2023-03-27T03:02:12.698Z,0.70
2023-03-27T03:03:53.846Z,0.70
2023-03-27T03:05:11.652Z,0.90
2023-03-27T03:05:47.951Z,0.60
2023-03-27T03:06:42.717Z,1.20
2023-03-27T03:07:16.357Z,0.80
2023-03-27T03:07:50.710Z,1.20
2023-03-27T03:08:25.586Z,0.60
2023-03-27T03:09:10.667Z,0.60
2023-03-27T03:09:44.770Z,0.80
2023-03-27T03:10:18.192Z,0.50
2023-03-27T03:10:51.800Z,0.70
2023-03-27T03:11:29.011Z,0.90
2023-03-27T03:12:02.431Z,1.10
2023-03-27T03:12:41.665Z,0.90
2023-03-27T03:13:16.327Z,0.70
2023-03-27T03:13:49.937Z,0.50
2023-03-27T03:14:29.285Z,1.00
2023-03-27T03:15:02.798Z,0.60
2023-03-27T03:15:37.640Z,0.80
2023-03-27T03:16:11.512Z,0.80
2023-03-27T03:16:46.455Z,0.50
2023-03-27T03:17:19.999Z,0.80
2023-03-27T03:17:57.142Z,1.20
2023-03-27T03:18:37.368Z,1.10
2023-03-27T03:19:10.917Z,0.70
2023-03-27T03:19:44.532Z,0.70
2023-03-27T03:20:18.025Z,1.40
2023-03-27T03:23:24.747Z,1.10
2023-03-27T03:23:59.290Z,0.70
2023-03-27T03:24:35.703Z,0.70
2023-03-27T03:25:12.502Z,0.60
2023-03-27T03:25:48.097Z,1.00
2023-03-27T03:26:21.724Z,0.90
2023-03-27T03:26:55.078Z,0.70
2023-03-27T03:27:29.495Z,0.90
2023-03-27T03:28:10.002Z,1.00
2023-03-27T03:29:00.049Z,1.00
2023-03-27T03:29:37.194Z,1.00
2023-03-27T03:30:18.654Z,1.00
2023-03-27T03:31:14.407Z,1.00
2023-03-27T03:31:49.880Z,1.20
2023-03-27T03:32:23.542Z,2.00
2023-03-27T03:32:58.515Z,1.10
2023-03-27T03:33:32.473Z,1.30
2023-03-27T03:34:05.802Z,1.60
2023-03-27T03:34:41.774Z,1.60
2023-03-27T03:35:23.524Z,1.30
2023-03-27T03:36:03.962Z,1.40
2023-03-27T03:36:45.101Z,1.50
2023-03-27T03:37:19.202Z,1.30
2023-03-27T03:37:58.016Z,1.70
2023-03-27T03:38:38.010Z,1.60
2023-03-27T03:39:16.997Z,1.50
2023-03-27T03:39:52.396Z,1.60
2023-03-27T03:40:25.933Z,1.40
2023-03-27T03:41:03.152Z,1.30
2023-03-27T03:41:36.777Z,1.60
2023-03-27T03:42:22.698Z,1.60
2023-03-27T03:42:58.624Z,1.50
2023-03-27T03:43:34.354Z,2.20
2023-03-27T03:44:10.198Z,1.60
2023-03-27T03:44:44.020Z,2.20
2023-03-27T03:45:29.822Z,1.60
2023-03-27T03:46:04.265Z,1.40
2023-03-27T03:46:37.782Z,1.60
2023-03-27T03:47:13.479Z,2.50
2023-03-27T03:47:48.705Z,1.90
2023-03-27T03:48:23.233Z,1.60
2023-03-27T03:48:58.919Z,1.60
2023-03-27T03:49:32.898Z,4.70
2023-03-27T03:50:07.348Z,1.60
2023-03-27T03:50:41.321Z,1.90
2023-03-27T03:51:14.773Z,2.10
2023-03-27T03:51:48.209Z,1.80
2023-03-27T03:52:38.143Z,1.90
2023-03-27T03:53:12.426Z,1.90
2023-03-27T03:53:45.956Z,2.80
2023-03-27T03:54:19.452Z,1.90
2023-03-27T03:54:52.931Z,1.80
2023-03-27T03:55:26.512Z,2.00
2023-03-27T03:56:08.124Z,1.90
2023-03-27T03:56:41.927Z,1.90
2023-03-27T03:57:15.776Z,1.90
2023-03-27T03:57:51.674Z,2.70
2023-03-27T03:58:34.659Z,1.80
2023-03-27T03:59:14.249Z,2.20
2023-03-27T04:00:12.354Z,1.90
2023-03-27T04:00:54.986Z,2.30
2023-03-27T04:01:47.430Z,2.60
2023-03-27T04:02:29.946Z,2.30
2023-03-27T04:03:10.541Z,2.00
2023-03-27T04:03:44.301Z,2.20
2023-03-27T04:04:17.773Z,2.10
2023-03-27T04:05:08.732Z,1.90
2023-03-27T04:05:44.326Z,2.30
2023-03-27T04:06:21.272Z,2.00
2023-03-27T04:06:58.521Z,2.80
2023-03-27T04:07:35.907Z,1.90
2023-03-27T04:08:38.371Z,2.40
2023-03-27T04:09:11.907Z,2.00
2023-03-27T04:10:23.321Z,2.30
2023-03-27T04:10:57.349Z,2.50
2023-03-27T04:11:51.821Z,2.10
2023-03-27T04:12:48.699Z,2.60
2023-03-27T04:13:28.493Z,2.30
2023-03-27T04:14:07.348Z,2.20
2023-03-27T04:14:45.463Z,2.20
2023-03-27T04:15:39.363Z,3.60
2023-03-27T04:16:34.339Z,2.50
2023-03-27T04:17:13.128Z,2.60
2023-03-27T04:17:48.700Z,3.40
2023-03-27T04:18:24.802Z,4.50
2023-03-27T04:18:58.566Z,2.90
2023-03-27T04:19:33.125Z,3.80
2023-03-27T04:20:10.508Z,2.50
2023-03-27T04:20:43.851Z,2.20
2023-03-27T04:21:18.799Z,2.90
2023-03-27T04:21:54.739Z,3.50
2023-03-27T04:22:29.455Z,2.50
2023-03-27T04:23:03.664Z,3.30
2023-03-27T04:23:37.537Z,2.40
2023-03-27T04:24:14.278Z,2.30
2023-03-27T04:24:51.088Z,2.50
2023-03-27T04:25:25.377Z,2.60
2023-03-27T04:26:00.483Z,2.40
2023-03-27T04:26:40.717Z,2.90
2023-03-27T04:27:23.353Z,2.70
2023-03-27T04:28:22.869Z,2.90
2023-03-27T04:29:02.793Z,2.70
2023-03-27T04:30:08.855Z,4.40
2023-03-27T04:31:06.864Z,3.10
2023-03-27T04:32:19.410Z,3.40
2023-03-27T04:33:18.658Z,2.90
2023-03-27T04:34:29.428Z,2.30
2023-03-27T04:36:58.272Z,6.10
2023-03-27T04:37:32.428Z,2.20
2023-03-27T04:38:33.439Z,2.40
2023-03-27T04:39:10.725Z,2.80
2023-03-27T04:39:46.548Z,2.80
2023-03-27T04:40:20.956Z,2.40
2023-03-27T04:40:55.564Z,2.90
2023-03-27T04:41:33.169Z,3.10
2023-03-27T04:42:07.007Z,2.60
2023-03-27T04:42:47.007Z,2.70
2023-03-27T04:43:22.082Z,3.60
2023-03-27T04:43:56.117Z,2.60
2023-03-27T04:44:30.182Z,3.10
2023-03-27T04:45:04.420Z,2.50
2023-03-27T04:45:39.241Z,2.80
2023-03-27T04:46:12.919Z,2.90
2023-03-27T04:46:50.836Z,3.00
2023-03-27T04:47:25.491Z,3.20
2023-03-27T04:48:01.403Z,3.40
2023-03-27T04:48:39.317Z,3.30
2023-03-27T04:49:40.719Z,3.10
2023-03-27T04:50:24.223Z,2.80
2023-03-27T04:50:58.727Z,3.00
2023-03-27T04:51:42.207Z,2.90
2023-03-27T04:52:17.504Z,3.40
2023-03-27T04:52:58.552Z,3.80
2023-03-27T04:53:34.373Z,3.10
2023-03-27T04:54:11.617Z,2.90
2023-03-27T04:54:50.316Z,2.90
2023-03-27T04:55:26.054Z,3.10
2023-03-27T04:55:59.795Z,3.20
2023-03-27T04:56:36.758Z,4.10
2023-03-27T04:57:10.383Z,2.90
2023-03-27T04:57:47.721Z,3.00
2023-03-27T04:58:21.352Z,2.70
2023-03-27T04:58:54.880Z,3.40
2023-03-27T04:59:32.287Z,3.20
2023-03-27T05:00:24.259Z,2.90
2023-03-27T05:01:17.536Z,3.10
2023-03-27T05:02:10.572Z,3.90
2023-03-27T05:02:56.336Z,3.40
2023-03-27T05:03:49.398Z,2.90
2023-03-27T05:04:32.181Z,3.60
2023-03-27T05:05:17.254Z,3.90
2023-03-27T05:05:53.989Z,3.20
2023-03-27T05:06:27.451Z,5.10
2023-03-27T05:07:02.738Z,2.80
2023-03-27T05:07:37.057Z,4.90
2023-03-27T05:08:13.380Z,3.30
2023-03-27T05:08:46.903Z,4.20
2023-03-27T05:09:29.733Z,3.60
2023-03-27T05:10:04.829Z,4.20
2023-03-27T05:10:39.099Z,3.40
2023-03-27T05:11:12.517Z,3.70
2023-03-27T05:11:52.261Z,3.40
2023-03-27T05:12:25.797Z,3.80
2023-03-27T05:13:00.183Z,3.30
2023-03-27T05:13:34.184Z,4.10
2023-03-27T05:14:07.716Z,3.30
2023-03-27T05:14:41.606Z,3.80
2023-03-27T05:15:22.226Z,3.30
2023-03-27T05:15:56.014Z,4.00
2023-03-27T05:16:30.150Z,3.30
2023-03-27T05:17:06.249Z,3.20
2023-03-27T05:17:45.944Z,3.40
2023-03-27T05:18:19.468Z,3.50
2023-03-27T05:18:56.468Z,3.00
2023-03-27T05:19:30.620Z,3.30
2023-03-27T05:20:08.393Z,3.60
2023-03-27T05:20:44.079Z,3.20
2023-03-27T05:21:17.889Z,3.00
2023-03-27T05:21:52.759Z,3.20
2023-03-27T05:22:32.409Z,3.10
2023-03-27T05:23:16.659Z,3.10
2023-03-27T05:23:50.170Z,4.40
2023-03-27T05:24:27.857Z,4.60
2023-03-27T05:25:01.796Z,2.90
2023-03-27T05:25:35.382Z,5.00
2023-03-27T05:26:10.985Z,2.90
2023-03-27T05:27:02.935Z,3.40
2023-03-27T05:27:37.003Z,3.50
2023-03-27T05:28:10.820Z,2.90
2023-03-27T05:28:44.913Z,3.60
2023-03-27T05:29:19.083Z,3.40
2023-03-27T05:29:53.351Z,3.80
2023-03-27T05:30:27.385Z,3.70
2023-03-27T05:31:13.541Z,3.50
2023-03-27T05:32:04.760Z,3.70
2023-03-27T05:32:52.848Z,3.00
2023-03-27T05:33:33.530Z,3.80
2023-03-27T05:34:07.698Z,3.30
2023-03-27T05:34:42.634Z,3.80
2023-03-27T05:35:21.783Z,3.70
2023-03-27T05:35:57.652Z,3.50
2023-03-27T05:36:33.079Z,3.20
2023-03-27T05:37:06.703Z,4.60
2023-03-27T05:37:49.129Z,3.50
2023-03-27T05:38:31.059Z,2.80
2023-03-27T05:39:36.944Z,3.10
2023-03-27T05:40:16.255Z,3.20
2023-03-27T05:40:49.971Z,3.70
2023-03-27T05:41:25.224Z,3.20
2023-03-27T05:41:58.870Z,2.80
2023-03-27T05:42:32.760Z,3.10
2023-03-27T05:43:07.270Z,3.00
2023-03-27T05:43:41.081Z,3.40
2023-03-27T05:44:14.602Z,3.00
2023-03-27T05:44:48.959Z,2.70
2023-03-27T05:45:23.394Z,3.20
2023-03-27T05:45:57.560Z,3.90
2023-03-27T05:46:31.721Z,2.90
2023-03-27T05:47:14.759Z,2.90
2023-03-27T05:47:56.940Z,4.00
2023-03-27T05:48:31.466Z,3.40
2023-03-27T05:49:07.123Z,3.00
2023-03-27T05:49:40.824Z,3.20
2023-03-27T05:50:18.467Z,3.40
2023-03-27T05:50:52.247Z,2.70
2023-03-27T05:51:29.903Z,3.20
2023-03-27T05:52:04.418Z,3.20
2023-03-27T05:52:38.024Z,3.30
2023-03-27T05:53:11.750Z,3.50
2023-03-27T05:53:55.442Z,3.00
2023-03-27T05:54:42.189Z,3.20
2023-03-27T05:55:17.053Z,4.70
2023-03-27T05:55:50.968Z,2.80
2023-03-27T05:56:41.465Z,3.20
2023-03-27T05:57:15.175Z,2.60
2023-03-27T05:57:49.606Z,3.80
2023-03-27T05:58:23.231Z,3.10
2023-03-27T05:58:56.965Z,3.70
2023-03-27T05:59:30.785Z,3.60
2023-03-27T06:00:23.065Z,2.80
2023-03-27T06:00:56.924Z,2.80
2023-03-27T06:01:30.559Z,3.60
2023-03-27T06:02:05.488Z,3.30
2023-03-27T06:02:49.810Z,3.20
2023-03-27T06:03:24.956Z,3.50
2023-03-27T06:04:09.518Z,2.90
2023-03-27T06:04:59.315Z,3.30
2023-03-27T06:05:40.475Z,3.50
2023-03-27T06:06:15.591Z,3.60
2023-03-27T06:06:50.632Z,2.90
2023-03-27T06:07:24.208Z,3.20
2023-03-27T06:07:59.293Z,2.70
2023-03-27T06:08:33.888Z,2.90
2023-03-27T06:09:08.069Z,3.30
2023-03-27T06:09:41.486Z,3.60
2023-03-27T06:10:34.194Z,3.00
2023-03-27T06:11:21.101Z,2.90
2023-03-27T06:11:55.180Z,3.00
2023-03-27T06:12:29.390Z,2.80
2023-03-27T06:13:13.135Z,2.90
2023-03-27T06:13:58.680Z,2.90
2023-03-27T06:14:43.449Z,3.50
2023-03-27T06:15:43.733Z,3.30
2023-03-27T06:16:30.267Z,2.70
2023-03-27T06:17:09.854Z,3.00
2023-03-27T06:17:50.327Z,4.10
2023-03-27T06:18:24.305Z,3.00
2023-03-27T06:18:57.898Z,2.60
2023-03-27T06:19:31.860Z,3.00
2023-03-27T06:20:13.080Z,3.10
2023-03-27T06:20:51.251Z,2.50
2023-03-27T06:21:24.826Z,3.10
2023-03-27T06:22:03.862Z,2.40
2023-03-27T06:22:49.651Z,2.70
2023-03-27T06:23:24.232Z,3.70
2023-03-27T06:23:57.941Z,3.00
2023-03-27T06:24:35.932Z,2.60
2023-03-27T06:25:10.119Z,2.70
2023-03-27T06:25:44.590Z,2.90
2023-03-27T06:26:19.747Z,3.00
2023-03-27T06:26:53.257Z,2.80
2023-03-27T06:27:28.538Z,2.80
2023-03-27T06:28:05.918Z,3.50
2023-03-27T06:28:44.456Z,3.40
2023-03-27T06:29:18.532Z,3.60
2023-03-27T06:29:56.647Z,2.80
2023-03-27T06:30:30.517Z,3.80
2023-03-27T06:31:27.644Z,2.50
2023-03-27T06:32:20.882Z,3.70
2023-03-27T06:32:58.994Z,3.10
2023-03-27T06:33:33.316Z,2.90
2023-03-27T06:34:08.842Z,2.50
2023-03-27T06:34:59.713Z,2.70
2023-03-27T06:36:00.934Z,2.70
2023-03-27T06:36:41.146Z,2.30
2023-03-27T06:37:15.999Z,2.30
2023-03-27T06:37:51.506Z,2.30
2023-03-27T06:38:25.609Z,2.60
2023-03-27T06:38:59.032Z,2.10
2023-03-27T06:39:32.671Z,2.30
2023-03-27T06:40:10.315Z,2.80
2023-03-27T06:40:45.196Z,2.10
2023-03-27T06:41:18.624Z,2.10
2023-03-27T06:42:06.343Z,2.20
2023-03-27T06:42:52.585Z,2.60
2023-03-27T06:43:30.991Z,2.00
2023-03-27T06:44:07.746Z,2.10
2023-03-27T06:44:53.345Z,2.00
2023-03-27T06:47:22.598Z,2.40
2023-03-27T06:48:21.383Z,1.80
2023-03-27T06:48:57.790Z,2.30
2023-03-27T06:49:31.262Z,1.90
2023-03-27T06:50:05.465Z,2.50
2023-03-27T06:50:39.803Z,2.60
2023-03-27T06:51:13.268Z,1.60
2023-03-27T06:51:46.722Z,2.80
2023-03-27T06:52:20.243Z,1.20
2023-03-27T06:52:54.333Z,1.00
2023-03-27T06:53:45.701Z,1.00
2023-03-27T06:54:19.568Z,1.50
2023-03-27T06:54:56.026Z,1.30
2023-03-27T06:55:31.858Z,1.50
2023-03-27T06:56:06.026Z,1.30
2023-03-27T06:56:56.166Z,1.20
2023-03-27T06:57:29.975Z,1.80
2023-03-27T06:58:05.816Z,1.80
2023-03-27T06:58:39.676Z,1.50
2023-03-27T06:59:13.765Z,1.20
2023-03-27T06:59:47.423Z,1.00
2023-03-27T07:00:29.209Z,1.20
2023-03-27T07:01:37.739Z,1.20
2023-03-27T07:02:31.789Z,1.70
2023-03-27T07:03:34.576Z,0.70
2023-03-27T07:05:04.640Z,1.60
2023-03-27T07:05:49.310Z,1.60
2023-03-27T07:06:22.880Z,1.50
2023-03-27T07:07:03.187Z,2.30
2023-03-27T07:07:41.587Z,1.70
2023-03-27T07:08:24.480Z,1.80
2023-03-27T07:08:59.877Z,2.50
2023-03-27T07:09:33.512Z,3.80
2023-03-27T07:10:11.246Z,3.30
2023-03-27T07:10:47.045Z,3.90
2023-03-27T07:11:25.590Z,3.30
2023-03-27T07:12:04.363Z,3.30
2023-03-27T07:12:45.713Z,4.60
2023-03-27T07:13:21.156Z,4.30
2023-03-27T07:13:54.785Z,3.50
2023-03-27T07:14:31.658Z,2.70
2023-03-27T07:15:06.634Z,2.40
2023-03-27T07:15:41.330Z,2.50
2023-03-27T07:16:16.037Z,2.50
2023-03-27T07:16:49.641Z,2.00
2023-03-27T07:17:23.156Z,2.10
2023-03-27T07:18:04.418Z,1.90
2023-03-27T07:18:38.170Z,2.50
2023-03-27T07:19:11.555Z,2.00
2023-03-27T07:19:46.595Z,1.70
2023-03-27T07:20:20.577Z,1.80
2023-03-27T07:20:54.420Z,2.60
2023-03-27T07:21:30.163Z,1.90
2023-03-27T07:22:06.360Z,2.40
2023-03-27T07:22:43.410Z,2.80
2023-03-27T07:23:20.564Z,2.10
2023-03-27T07:24:04.365Z,1.80
2023-03-27T07:24:53.455Z,2.30
2023-03-27T07:25:29.528Z,1.60
2023-03-27T07:26:03.636Z,1.70
2023-03-27T07:26:57.498Z,2.00
2023-03-27T07:27:39.056Z,1.70
2023-03-27T07:28:16.893Z,2.10
2023-03-27T07:28:51.927Z,1.60
2023-03-27T07:29:26.114Z,2.00
2023-03-27T07:30:01.721Z,2.00
2023-03-27T07:30:37.818Z,1.90
2023-03-27T07:31:29.343Z,2.30
2023-03-27T07:32:09.361Z,1.50
2023-03-27T07:32:47.300Z,1.60
2023-03-27T07:33:21.204Z,1.60
2023-03-27T07:33:55.057Z,2.50
2023-03-27T07:34:36.047Z,1.90
2023-03-27T07:35:18.560Z,2.10
2023-03-27T07:36:18.125Z,2.50
2023-03-27T07:37:02.873Z,1.60
2023-03-27T07:37:39.174Z,1.40
2023-03-27T07:38:45.576Z,1.50
2023-03-27T07:39:27.967Z,1.90
2023-03-27T07:40:01.427Z,1.60
2023-03-27T07:40:40.112Z,1.70
2023-03-27T07:41:34.702Z,2.20
2023-03-27T07:43:28.044Z,2.10
2023-03-27T07:44:01.828Z,1.90
2023-03-27T07:44:42.431Z,1.70
2023-03-27T07:45:17.564Z,2.10
2023-03-27T07:45:51.157Z,1.90
2023-03-27T07:46:25.958Z,1.80
2023-03-27T07:47:01.234Z,1.60
2023-03-27T07:47:34.761Z,1.90
2023-03-27T07:48:17.535Z,2.80
2023-03-27T07:48:51.219Z,2.20
2023-03-27T07:49:39.845Z,1.50
2023-03-27T07:50:17.622Z,1.60
2023-03-27T07:50:51.836Z,2.00
2023-03-27T07:51:33.273Z,2.30
2023-03-27T07:52:06.928Z,2.00
2023-03-27T07:52:46.219Z,2.00
2023-03-27T07:53:32.572Z,1.20
2023-03-27T07:54:13.765Z,1.60
2023-03-27T07:54:50.048Z,1.60
2023-03-27T07:55:24.161Z,3.10
2023-03-27T07:56:08.879Z,1.50
2023-03-27T07:56:42.476Z,1.70
2023-03-27T07:58:00.776Z,1.70
2023-03-27T07:58:37.180Z,1.80
2023-03-27T07:59:11.911Z,1.70
2023-03-27T07:59:45.465Z,1.90
2023-03-27T08:00:25.583Z,2.50
2023-03-27T08:01:06.508Z,2.00
2023-03-27T08:01:42.485Z,1.90
2023-03-27T08:02:16.050Z,1.30
2023-03-27T08:02:52.734Z,1.60
2023-03-27T08:03:26.411Z,1.80
2023-03-27T08:04:00.953Z,2.10
2023-03-27T08:04:34.671Z,1.60
2023-03-27T08:05:18.238Z,1.80
2023-03-27T08:06:00.080Z,1.70
2023-03-27T08:06:35.813Z,1.60
2023-03-27T08:07:10.299Z,1.30
2023-03-27T08:07:45.781Z,1.50
2023-03-27T08:08:20.488Z,1.30
2023-03-27T08:09:02.855Z,1.50
2023-03-27T08:09:36.886Z,2.00
2023-03-27T08:10:11.578Z,1.50
2023-03-27T08:10:57.242Z,2.10
2023-03-27T08:11:32.465Z,1.70
2023-03-27T08:12:07.949Z,2.50
2023-03-27T08:12:45.779Z,1.30
2023-03-27T08:13:20.513Z,1.30
2023-03-27T08:13:53.923Z,1.70
2023-03-27T08:14:27.507Z,2.10
2023-03-27T08:15:03.033Z,2.20
2023-03-27T08:15:36.990Z,1.50
2023-03-27T08:16:17.379Z,2.20
2023-03-27T08:16:51.613Z,2.40
2023-03-27T08:17:28.361Z,1.80
2023-03-27T08:18:01.833Z,2.30
2023-03-27T08:18:38.135Z,2.60
2023-03-27T08:19:14.310Z,1.70
2023-03-27T08:19:50.800Z,2.00
2023-03-27T08:20:24.749Z,1.40
2023-03-27T08:20:59.393Z,1.90
2023-03-27T08:21:34.339Z,1.70
2023-03-27T08:22:09.172Z,1.70
2023-03-27T08:22:56.906Z,1.20
2023-03-27T08:23:49.163Z,1.70
2023-03-27T08:24:37.863Z,2.00
2023-03-27T08:25:15.005Z,1.80
2023-03-27T08:25:50.985Z,1.50
2023-03-27T08:26:29.235Z,1.60
2023-03-27T08:27:05.321Z,1.70
2023-03-27T08:27:45.057Z,1.70
2023-03-27T08:28:18.547Z,2.60
2023-03-27T08:28:54.337Z,1.60
2023-03-27T08:29:29.586Z,1.60
2023-03-27T08:30:04.959Z,1.70
2023-03-27T08:30:41.601Z,1.50
2023-03-27T08:31:18.564Z,2.30
2023-03-27T08:31:52.269Z,1.90
2023-03-27T08:32:25.951Z,1.80
2023-03-27T08:33:01.038Z,1.70
2023-03-27T08:33:34.439Z,1.50
2023-03-27T08:34:09.439Z,2.30
2023-03-27T08:34:50.458Z,1.60
2023-03-27T08:35:27.283Z,1.70
2023-03-27T08:36:00.923Z,1.50
2023-03-27T08:36:34.963Z,1.40
2023-03-27T08:37:09.061Z,1.80
2023-03-27T08:37:49.429Z,2.30
2023-03-27T08:38:34.498Z,2.60
2023-03-27T08:39:15.936Z,1.80
2023-03-27T08:40:02.011Z,1.60
2023-03-27T08:40:38.122Z,1.60
2023-03-27T08:41:30.843Z,1.70
2023-03-27T08:42:22.576Z,1.80
2023-03-27T08:43:07.693Z,2.50
2023-03-27T08:43:45.176Z,1.50
2023-03-27T08:44:21.552Z,2.10
2023-03-27T08:44:57.294Z,2.80
2023-03-27T08:45:49.899Z,2.00
2023-03-27T08:46:43.265Z,1.70
2023-03-27T08:47:24.532Z,2.00
2023-03-27T08:48:16.618Z,1.50
2023-03-27T08:49:08.957Z,2.00
2023-03-27T08:49:48.112Z,2.50
2023-03-27T08:50:36.724Z,1.50
2023-03-27T08:51:32.038Z,1.90
2023-03-27T08:52:15.819Z,1.90
2023-03-27T08:52:51.134Z,2.60
2023-03-27T08:53:57.561Z,2.00
2023-03-27T08:54:36.127Z,1.40
2023-03-27T08:55:19.195Z,2.10
2023-03-27T08:56:01.302Z,2.20
2023-03-27T08:56:42.461Z,2.20
2023-03-27T08:57:21.661Z,1.90
2023-03-27T08:57:56.651Z,3.00
2023-03-27T08:58:30.955Z,3.20
2023-03-27T08:59:22.967Z,2.00
2023-03-27T09:00:01.423Z,2.20
2023-03-27T09:00:40.800Z,2.30
2023-03-27T09:02:08.699Z,1.50
2023-03-27T09:03:05.413Z,1.80
2023-03-27T09:03:51.797Z,1.30
2023-03-27T09:04:27.681Z,1.40
2023-03-27T09:05:15.230Z,1.70
2023-03-27T09:06:02.959Z,1.60
2023-03-27T09:07:03.570Z,1.90
2023-03-27T09:08:05.889Z,1.40
2023-03-27T09:09:07.337Z,2.00
2023-03-27T09:09:59.794Z,3.20
2023-03-27T09:10:50.004Z,2.20
2023-03-27T09:11:49.953Z,1.30
2023-03-27T09:12:33.458Z,1.80
2023-03-27T09:13:16.073Z,1.80
2023-03-27T09:13:51.929Z,1.50
2023-03-27T09:14:32.073Z,2.10
2023-03-27T09:15:17.396Z,1.50
2023-03-27T09:16:26.196Z,1.60
2023-03-27T09:17:17.591Z,2.40
2023-03-27T09:18:04.739Z,1.60
2023-03-27T09:18:51.567Z,1.70
2023-03-27T09:19:42.914Z,1.80
2023-03-27T09:20:59.424Z,2.00
2023-03-27T09:21:43.041Z,2.10
2023-03-27T09:22:26.777Z,2.20
2023-03-27T09:23:34.823Z,2.20
2023-03-27T09:24:39.639Z,5.80
2023-03-27T09:25:38.999Z,2.00
2023-03-27T09:26:36.067Z,2.90
2023-03-27T09:27:33.916Z,1.90
2023-03-27T09:28:44.019Z,2.80
2023-03-27T09:29:31.491Z,2.80
2023-03-27T09:30:25.205Z,2.50
2023-03-27T09:31:27.886Z,1.70
2023-03-27T09:32:02.114Z,1.70
2023-03-27T09:32:36.095Z,2.30